| Date | Time | Temp. (oF) | Dew Point (oF) | Rel. Hum. (%) | Press. (in.) | Wind Dir. | Wind Speed (mph) | Hourly Rainfall (in.) |
|
|---|---|---|---|---|---|---|---|---|---|
| 1 | 10/20 | 00:00 | 60 | 55 | 85 | 29.85 | NW | 0 | 0.00 |
| 2 | 10/19 | 23:00 | 63 | 55 | 77 | 29.85 | N | 0 | 0.00 |
| 3 | 10/19 | 22:00 | 65 | 56 | 73 | 29.84 | N | 0 | 0.00 |
| 4 | 10/19 | 21:00 | 66 | 55 | 70 | 29.82 | SSW | 4 | 0.00 |
| 5 | 10/19 | 20:00 | 67 | 55 | 67 | 29.80 | SSW | 5 | 0.00 |
| 6 | 10/19 | 19:00 | 69 | 54 | 59 | 29.78 | S | 5 | 0.00 |
| 7 | 10/19 | 18:00 | 72 | 53 | 52 | 29.78 | S | 7 | 0.00 |
| 8 | 10/19 | 17:00 | 74 | 52 | 47 | 29.77 | SSE | 10 | 0.00 |
| 9 | 10/19 | 16:00 | 75 | 51 | 44 | 29.77 | S | 16 | 0.00 |
| 10 | 10/19 | 15:00 | 75 | 52 | 46 | 29.79 | SSW | 5 | 0.00 |
| 11 | 10/19 | 14:00 | 73 | 51 | 47 | 29.83 | SSW | 13 | 0.00 |
| 12 | 10/19 | 13:00 | 71 | 51 | 50 | 29.87 | S | 7 | 0.00 |
| 13 | 10/19 | 12:00 | 69 | 52 | 56 | 29.91 | S | 7 | 0.00 |
| 14 | 10/19 | 11:00 | 64 | 53 | 68 | 29.94 | S | 5 | 0.00 |
| 15 | 10/19 | 10:00 | 54 | 53 | 98 | 29.95 | ENE | 3 | 0.00 |
| 16 | 10/19 | 09:00 | 47 | 46 | 100 | 29.98 | ENE | 3 | 0.00 |
| 17 | 10/19 | 08:00 | 42 | 41 | 99 | 29.98 | ESE | 0 | 0.00 |
| 18 | 10/19 | 07:00 | 43 | 42 | 98 | 29.97 | ESE | 0 | 0.00 |
| 19 | 10/19 | 06:00 | 44 | 43 | 98 | 29.96 | SW | 0 | 0.00 |
| 20 | 10/19 | 05:00 | 45 | 44 | 97 | 29.95 | WSW | 0 | 0.00 |
| 21 | 10/19 | 04:00 | 46 | 44 | 96 | 29.94 | SSW | 1 | 0.00 |
| 22 | 10/19 | 03:00 | 48 | 45 | 91 | 29.94 | WNW | 0 | 0.00 |
| 23 | 10/19 | 02:00 | 50 | 46 | 87 | 29.93 | NW | 1 | 0.00 |
| 24 | 10/19 | 01:00 | 52 | 46 | 83 | 29.92 | SSE | 0 | 0.00 |